Latest Observation

65 Stations

10 Minute Data
as of 5/2/26 6:00 PM PDT
Station Date Time Temp (°F) RH (%) Dew Pt (°F) Wind Spd (mph) Wind Dir (°) Wind Gust (mph) Wind Gst Dir (°) Latest Rain (In) Soil Moist (%) Soil Temp (°F) Daily Rain (In) Daily Min Temp (°F) Daily Max Temp (°F) Daily Max Wind (mph)
Hobart Mills 5/2/26 1800 46.7   17.2 98   81 46.2   27.6 0.4   0.2 W | 279 2.2   0.1 W | 278 0.00 - 32.0   0.0 0.07 35.0   5.7 63.0   3.9 14.0   2.4
Prosser Dam 5/2/26 1800 48.1   17.3 92   76 46.0   26.7 3.0   2.7 WNW | 290 5.0   3.5 NW | 310 0.00 21.0   0.2 49.4   0.6 0.09 33.6   6.0 64.5   3.0 17.3   2.7
West Incline Village 5/2/26 1800 53.3   4.8 53   29 36.8   14.6 0.9   1.0 ESE | 115 5.1   0.6 E | 97 0.00 30.8   0.1 44.3   0.9 0.00 43.8   2.6 57.2   4.0 12.8   2.1
Incline Village (Fairview Blvd) 5/2/26 1800 54.5   5.8 50   25 36.0   12.2 0.4   0.7 N | 357 4.1   1.1 NNE | 26 0.00 24.2   0.1 51.9   1.3 0.00 45.5   1.5 58.6   5.6 8.1   4.4
Incline Village (Diamond Peak) 5/2/26 1800 51.0   5.9 51   26 33.6   12.1 5.0   3.4 ENE | 68 11.8   7.5 ENE | 67 0.00 8.5   0.1 45.4   1.8 0.00 46.2   2.5 56.0   2.6 11.8   2.6
Incline Village (Mill Creek) 5/2/26 1800 55.6   6.3 47   27 35.7   15.6 3.0   2.0 NE | 52 7.6   4.0 NNE | 14 0.00 9.9   0.0 45.7   1.0 0.00 44.0   1.5 60.6   3.9 7.6   8.8
Incline Village (Lakeshore Blvd) 5/2/26 1800 58.3   1.4 45   10 36.9   5.0 3.2   3.1 NE | 45 13.7   12.3 ENE | 59 0.00 31.4   0.6 55.2   1.7 0.00 39.6   3.7 61.2   1.5 13.7   2.1
Glenbrook 5/2/26 1800 57.7   0.4 50   5 39.3   3.0 1.0   1.3 ENE | 72 7.6   4.3 SE | 135 0.00 44.3   0.0 44.6   0.5 0.00 40.3   3.0 61.1   3.3 9.7   8.6
Zephyr Cove 5/2/26 1800 58.5   0.9 43   19 36.4   13.4 0.0   1.0 N | 0 0.0   1.4 NNW | 347 0.00 - 34.3   0.0 0.00 43.1   13.7 62.8   0.7 4.6   2.7
Kingsbury Grade 5/2/26 1800 56.4   3.2 45   20 35.2   12.1 4.7   2.8 ESE | 123 16.8   9.3 SSE | 154 0.00 6.0   0.1 55.5   1.0 0.00 41.8   4.5 61.6   0.0 16.8   1.6
South Daggett Pass (Ridge) 5/2/26 1800 51.8   5.9 51   23 34.1   9.9 3.9   2.3 ESE | 120 9.8   3.2 SE | 140 0.00 6.6   0.0 48.3   1.2 0.00 44.9   1.8 58.0   0.8 18.9   2.2
Palomino Valley 5/2/26 1800 61.6   10.6 48   37 41.8   26.2 1.0   0.3 ESE | 115 4.0   0.6 E | 93 0.00 6.8   0.1 64.3   1.1 0.00 41.8   7.8 73.7   0.5 28.7   2.9
East Cold Springs 5/2/26 1800 54.5   12.9 63   46 42.0   21.5 4.3   1.9 NE | 46 8.9   0.6 NNE | 31 0.00 1.5   0.0 56.2   0.4 0.01 48.1   2.5 66.0   3.0 16.5   9.6
Peavine 5/2/26 1800 52.8   11.1 65   48 41.5   22.5 6.2   1.7 SSE | 166 22.5   13.4 SSW | 195 0.00 - 53.4   0.0 0.00 49.7   5.4 63.5   2.6 22.5   4.6
West Verdi Peak 5/2/26 1800 53.6   8.8 56   35 38.4   16.0 2.9   1.7 NE | 50 6.3   4.0 NE | 38 0.00 16.6   0.4 51.7   0.4 0.00 48.9   8.6 61.4   4.6 16.0   1.1
West Verdi 5/2/26 1800 60.2   7.9 49   32 41.0   19.4 4.4   0.7 ENE | 76 14.3   6.6 SE | 144 0.00 7.9   0.1 61.6   0.6 0.00 46.7   7.5 67.2   3.1 19.5   2.5
South Verdi 5/2/26 1800 57.5   9.0 52   34 39.8   18.7 13.7   4.5 WSW | 248 21.7   7.3 WSW | 248 0.00 16.7   0.6 61.9   2.9 0.00 45.8   2.8 66.0   1.1 24.5   4.8
Northwest Reno 5/2/26 1800 57.0   12.1 54   39 40.6   20.8 3.3   1.0 N | 357 21.9   17.5 NE | 35 0.03 24.2   0.0 64.5   0.5 0.04 51.6   5.2 68.3   2.6 28.4   3.1
North Lawton 5/2/26 1800 56.4   11.6 59   44 42.5   22.6 9.5   6.3 NE | 56 18.9   10.6 ENE | 66 0.00 - 39.1   0.0 0.02 50.1   8.7 67.5   2.8 18.9   2.2
West Reno (Mogul) 5/2/26 1800 58.4   9.9 50   35 39.8   20.9 5.6   2.1 SSE | 156 14.5   3.8 SE | 144 0.00 38.8   0.1 61.1   0.7 0.01 48.8   5.8 68.2   1.0 28.1   4.8
Caughlin (Hunter Lake Trail) 9/16/25 0800 59.7   3.5 41   11 35.9   2.7 0.0   0.0 N | 0 0.0   0.0 ENE | 66 0.00 15.7   0.0 69.8   0.5 0.00 55.7   3.2 67.7   9.1 9.4   0.9
ArrowCreek 5/2/26 1800 58.0   10.7 54   39 41.6   22.2 2.5   1.9 NW | 304 5.5   2.1 NW | 315 0.00 - 32.0   0.0 0.00 48.9   4.6 68.2   2.2 28.9   12.6
Tracy 5/2/26 1800 63.6   9.1 44   32 41.3   23.8 8.5   0.4 WSW | 247 11.0   3.0 SW | 232 0.00 8.0   0.1 63.6   0.6 0.00 48.0   4.7 74.1   0.2 23.2   3.1
Virginia Highlands 5/2/26 1800 54.4   9.3 61   44 41.1   23.1 0.7   4.0 NNE | 13 3.7   6.6 NE | 37 0.00 7.2   0.1 57.0   1.0 0.01 52.2   5.4 65.2   0.6 28.2   10.7
Virginia City 5/2/26 1800 54.6   8.0 55   39 38.7   22.6 8.1   4.2 N | 350 11.8   2.1 NNW | 339 0.00 8.5   0.0 55.8   0.7 0.00 51.0   3.5 64.1   1.4 37.1   21.4
Six Mile Canyon 9/9/25 0630 60.2   9.6 37   6 33.7   4.8 4.1   2.5 W | 277 6.1   2.9 WNW | 286 0.00 12.5   0.0 75.5   0.7 0.00 57.9   7.6 64.4   1.9 7.0   3.9
Mt Rose Highway 4/30/26 0510 40.8   4.7 47   13 22.3   1.3 2.3   0.2 WSW | 243 4.8   2.1 WSW | 246 0.00 24.1   0.3 43.0   0.8 0.00 40.5   4.7 43.0   5.3 7.7   0.4
Pleasant Valley 5/2/26 1800 59.2   11.6 54   39 42.8   20.4 4.9   1.3 NNE | 18 9.8   3.2 NE | 55 0.00 2.8   0.0 63.7   0.1 0.04 46.0   4.7 68.9   3.0 25.5   10.9
New Washoe City 5/2/26 1800 60.6   8.0 46   32 40.0   22.1 8.6   6.9 NE | 45 14.2   9.3 ENE | 59 0.00 4.5   0.1 58.9   1.2 0.00 46.1   5.3 67.5   2.6 28.2   11.6
Franktown Creek 5/2/26 1800 61.6   5.8 45   20 39.8   10.0 4.1   4.0 N | 5 8.8   7.1 NNE | 23 0.00 11.2   0.0 56.3   1.0 0.00 45.2   6.6 67.4   2.5 23.0   12.8
Musgrove Creek 5/2/26 1800 59.7   5.4 42   23 36.4   14.4 0.8   0.1 NE | 35 3.4   1.2 NNE | 17 0.00 39.1   0.1 52.6   0.7 0.00 49.7   3.0 64.5   2.3 12.7   1.6
East Carson 11/23/24 0110 28.6   28.4 - - 4.7   11.0 SW | 220 14.7   10.1 SW | 219 0.02 - 50.9   0.1 0.02 -25.9   79.1 42.9   14.6 16.0   10.7
Kings Canyon 5/2/26 1800 61.0   6.9 43   26 38.5   16.5 1.7   0.8 NW | 305 3.7   0.9 NNW | 327 0.00 15.5   0.2 59.9   0.6 0.00 45.8   5.5 67.9   1.0 22.5   7.6
Carson City (Voltaire Canyon) 5/2/26 1800 62.7   6.0 41   26 38.8   19.3 10.9   6.5 NNW | 347 16.6   9.3 NNW | 330 0.00 2.8   0.0 62.4   1.1 0.00 50.9   3.5 70.0   0.2 28.1   12.3
Jacks Valley 5/2/26 1800 62.5   6.1 39   23 37.2   16.2 5.4   1.4 N | 6 11.3   5.1 NNE | 18 0.00 9.8   0.4 67.5   4.9 0.00 47.0   3.4 69.0   0.5 19.1   3.1
Genoa 5/2/26 1800 65.0   1.7 38   14 38.9   10.0 0.8   0.7 SSW | 211 4.2   2.0 SSW | 199 0.00 5.9   0.2 68.9   2.3 0.00 47.6   5.1 71.9   0.7 10.7   1.0
South Genoa (Walleys Hot Springs) 5/2/26 1800 65.5   4.7 38   20 39.3   15.0 10.4   7.0 NW | 305 16.0   11.3 NW | 321 0.00 13.7   0.2 64.0   0.7 0.00 42.9   5.9 72.1   0.2 21.6   11.0
SW Gardnerville (HWY 88) 5/2/26 1800 64.4   4.6 39   14 39.0   7.4 17.2   9.4 ENE | 62 22.4   12.4 ENE | 71 0.00 3.4   0.1 58.2   0.5 0.00 42.1   8.3 70.6   0.0 25.3   12.4
Sheridan 5/2/26 1800 64.6   4.9 39   19 39.0   12.6 9.9   7.5 NNE | 13 20.2   14.9 ENE | 62 0.00 2.4   0.1 60.7   0.9 0.00 45.8   6.2 72.1   1.2 23.6   9.7
Ruhenstroth 5/2/26 1800 65.7   5.0 35   19 37.1   14.8 8.1   1.5 NE | 55 16.4   5.2 NNE | 32 0.00 12.9   0.2 60.6   1.4 0.00 45.0   5.5 70.7   1.2 22.4   5.6
Double Spring 5/2/26 1800 61.9   4.1 35   21 34.0   18.2 1.9   2.7 NE | 50 5.1   3.1 ENE | 60 0.00 28.6   0.1 59.2   2.0 0.00 39.6   9.0 65.6   1.7 21.0   2.7
North Topaz Lake 5/2/26 1800 63.0   4.4 36   23 35.9   19.9 9.3   7.2 NE | 51 17.8   10.7 NE | 38 0.00 9.2   0.3 65.6   7.0 0.01 51.6   3.7 67.9   1.0 22.1   4.7
Wild Oat Mountain 5/2/26 1800 60.2   5.1 39   24 35.3   19.2 4.7   0.2 ENE | 62 13.0   4.6 ENE | 71 0.00 16.7   0.0 60.6   0.1 0.00 51.9   5.8 65.6   2.6 24.2   5.6
Smith Valley 5/2/26 1800 65.3   5.4 38   22 39.3   16.6 4.5   0.7 N | 2 8.6   1.7 N | 353 0.00 6.0   0.0 63.2   0.2 0.00 45.6   2.8 72.5   0.4 20.2   5.8
Pine Grove Mountain 5/2/26 1800 48.4   6.8 49   31 30.2   17.6 5.0   0.6 NNW | 340 9.9   0.7 NNW | 330 0.00 14.5   0.0 55.0   0.1 0.02 46.0   4.5 58.7   1.6 23.7   3.6
Paradise Hill 5/2/26 1800 72.4   2.1 19   4 27.6   7.2 5.7   3.4 SE | 125 9.4   0.6 ESE | 116 0.00 8.1   0.0 59.1   0.1 0.00 38.9   0.3 74.6   2.8 19.4   1.1
Winnemucca 5/2/26 1800 73.2   2.6 17   5 26.4   10.2 4.0   5.5 NE | 37 7.8   7.6 NE | 44 0.00 5.9   0.0 58.7   0.9 0.00 41.1   2.6 75.7   4.1 20.0   1.6
NE Elko 5/2/26 1800 69.5   3.0 12   3 15.4   3.2 4.2   2.9 S | 184 6.8   4.8 SSE | 155 0.00 12.5   0.0 61.6   0.2 0.00 28.6   5.3 71.9   3.8 16.8   0.1
North Elko 5/2/26 1800 67.4   3.4 13   0 15.5   2.4 3.4   3.2 WSW | 258 6.3   4.6 SW | 231 0.00 28.4   0.0 56.2   0.7 0.00 42.5   0.8 69.7   4.6 18.4   0.4
South Elko 5/2/26 1800 78.6   7.5 22   0 36.0   6.7 5.0   1.9 S | 171 8.9   3.7 SSE | 156 0.00 19.1   0.1 58.5   0.5 0.00 46.3   2.4 - 20.1   0.5
Lamoille 1/28/26 1720 33.2   0.5 65   17 22.8   6.3 5.8   1.5 SSE | 166 7.7   1.9 SE | 139 0.00 12.2   0.0 33.4   0.1 0.02 23.5   2.0 36.5   5.9 25.6   17.4
Reid Gardner Sub 5/2/26 1800 86.7   1.5 8   1 19.5   2.2 2.9   3.9 SW | 229 8.8   9.4 WSW | 240 0.00 28.5   2.6 76.0   0.3 0.00 52.7   12.1 88.5   2.3 13.7   6.6
Corn Creek 5/2/26 1800 79.4   1.1 9   4 16.7   6.6 10.3   2.4 E | 94 15.3   3.4 ESE | 110 0.00 4.1   0.0 79.4   1.4 0.00 57.0   5.7 81.5   2.0 25.8   1.7
Lucky Strike 5/2/26 1800 66.9   1.4 11   4 10.1   6.8 8.8   1.8 ESE | 103 16.2   2.9 ESE | 107 0.00 4.5   0.0 72.0   0.8 0.00 54.4   0.8 68.7   0.8 25.0   7.2
Lower Angel Peak 5/2/26 1800 62.0   2.2 15   5 14.0   4.4 2.4   4.1 S | 191 8.3   3.5 SSW | 194 0.00 10.5   0.1 56.5   1.2 0.00 42.0   0.1 64.1   2.4 23.2   5.8
Angel Peak 5/2/26 1800 49.7   0.5 21   4 11.6   3.4 9.1   4.9 ESE | 122 14.9   4.0 ESE | 122 0.00 3.5   0.1 59.0   1.0 0.00 40.1   0.6 53.6   0.2 25.5   0.6
Upper Kyle Canyon 5/2/26 1800 55.0   3.3 16   8 10.0   5.9 5.1   1.6 N | 11 16.6   9.4 ESE | 111 0.00 13.8   0.0 53.9   2.2 0.00 37.6   0.5 58.9   3.0 18.6   2.0
Mt Charleston 5/2/26 1800 57.0   1.8 17   5 12.2   4.0 1.5   0.5 W | 270 6.1   2.9 W | 269 0.00 18.4   0.1 47.6   0.3 0.00 39.7   0.1 58.9   2.1 16.3   3.0
Mid Kyle Canyon 5/2/26 1800 62.6   1.9 16   3 15.5   2.7 7.2   0.5 SE | 124 13.2   1.1 ESE | 114 0.00 7.1   0.0 59.0   2.4 0.00 43.0   0.4 64.0   0.2 21.4   0.5
Blue Diamond 5/2/26 1800 78.2   1.6 9   5 13.9   8.8 1.7   3.1 SE | 143 6.7   3.4 S | 170 0.00 3.6   0.0 68.6   0.1 0.00 45.4   0.0 79.0   0.3 16.8   2.2
Artesian Sub 5/2/26 1800 87.0   1.6 7   4 14.8   8.9 1.0   0.4 SW | 218 5.0   0.9 WSW | 240 0.00 13.4   0.1 73.0   0.5 0.00 63.0   1.3 88.0   1.0 13.9   1.7
North Henderson 5/2/26 1800 87.5   2.1 8   3 17.9   7.1 3.1   2.6 N | 352 5.8   5.6 NE | 39 0.00 8.7   0.0 78.2   0.6 0.00 65.1   4.1 87.8   1.8 16.6   2.1
Sandy Valley 5/2/26 1800 83.0   1.8 10   5 20.6   8.0 6.0   0.3 ESE | 119 13.5   1.4 E | 100 0.00 4.6   0.0 83.0   1.3 0.00 65.2   4.5 83.9   0.1 35.0   11.6
Searchlight 5/2/26 1800 79.1   2.9 10   7 17.5   10.0 8.0   7.7 SSE | 160 12.9   13.5 SSE | 164 0.00 4.7   0.0 80.3   1.8 0.00 59.3   1.4 81.1   2.7 22.7   8.7
Laughlin 5/2/26 1800 93.7   2.0 10   3 27.9   4.3 8.3   10.4 SSW | 200 11.9   17.5 SSW | 196 0.00 4.1   0.1 83.0   0.8 0.00 72.2   3.6 94.7   1.7 20.9   13.3
Max     93.7 98 46.2 17.2 - 22.5 - 0.03 44.3 83.0 0.09 72.2 94.7 37.1
Avg     62.9 38 32.2 5.0 - 10.7 - 0.00 13.1 58.8 - - - -
Min     46.7 7 10.0 0.0 - 0.0 - 0.00 1.5 32.0 0.00 28.6 53.6 4.6